Time;durP1;ratioP1;P1;durP2;ratioP2;P2;SDS_P1;SDS_P2;PMS_P1;PMS_P2;Temp;Humidity;BMP_temperature;BMP_pressure;BME280_temperature;BME280_humidity;BME280_pressure;Samples;Min_cycle;Max_cycle;Signal;HPM_P1;HPM_P2
2022/12/20 00:01:33;;;;;;;44.43;29.50;;;;;;;-5.19;100.00;96995.41;5073736;28;21006;-71
2022/12/20 00:04:02;;;;;;;40.37;28.20;;;;;;;-5.18;100.00;96992.63;5071770;28;20429;-71
2022/12/20 00:06:29;;;;;;;44.33;26.70;;;;;;;-5.12;100.00;96993.56;5072331;28;20950;-71
2022/12/20 00:09:00;;;;;;;37.13;25.30;;;;;;;-5.19;100.00;96988.47;5073042;28;20549;-71
2022/12/20 00:11:27;;;;;;;36.93;23.90;;;;;;;-5.33;100.00;96976.69;5058988;28;20523;-71
2022/12/20 00:13:53;;;;;;;44.57;27.17;;;;;;;-5.27;100.00;96980.19;5071566;28;20955;-71
2022/12/20 00:16:22;;;;;;;39.70;27.70;;;;;;;-5.21;100.00;96976.78;5072889;28;20428;-71
2022/12/20 00:18:55;;;;;;;39.23;25.40;;;;;;;-5.15;100.00;96978.53;5071627;28;20790;-71
2022/12/20 00:21:23;;;;;;;35.93;24.40;;;;;;;-5.32;100.00;96954.28;5070909;28;20448;-71
2022/12/20 00:23:53;;;;;;;33.73;23.60;;;;;;;-5.11;100.00;96988.19;5071745;28;20471;-71
2022/12/20 00:26:31;;;;;;;34.57;23.50;;;;;;;-5.09;100.00;96991.34;5071206;28;20436;-71
2022/12/20 00:28:58;;;;;;;37.60;24.70;;;;;;;-5.07;100.00;96980.84;5054509;28;20474;-71
2022/12/20 00:31:27;;;;;;;38.00;25.10;;;;;;;-5.04;100.00;96975.28;5055598;28;20862;-72
2022/12/20 00:33:55;;;;;;;36.33;23.00;;;;;;;-5.01;100.00;96989.50;5055074;28;20690;-71
2022/12/20 00:36:24;;;;;;;36.37;23.40;;;;;;;-5.26;100.00;96961.94;5071070;28;20437;-72
2022/12/20 00:38:53;;;;;;;35.77;23.30;;;;;;;-5.10;100.00;96992.34;5055028;28;20428;-73
2022/12/20 00:41:26;;;;;;;40.57;26.90;;;;;;;-5.42;100.00;96958.09;5071089;28;20531;-71
2022/12/20 00:43:53;;;;;;;40.40;24.33;;;;;;;-5.17;100.00;96978.75;5057952;28;20448;-72
2022/12/20 00:46:23;;;;;;;32.60;22.47;;;;;;;-5.20;100.00;96962.91;5073900;28;20467;-72
2022/12/20 00:48:52;;;;;;;30.67;19.70;;;;;;;-5.06;100.00;96983.22;5081294;28;20791;-72
2022/12/20 00:51:22;;;;;;;31.67;19.40;;;;;;;-5.00;100.00;96986.72;5061075;28;20479;-72
2022/12/20 00:53:49;;;;;;;31.53;20.43;;;;;;;-5.03;100.00;96982.00;5071586;28;20498;-72
2022/12/20 00:56:16;;;;;;;31.00;22.43;;;;;;;-5.00;100.00;96980.78;5063007;28;20526;-72
2022/12/20 00:58:43;;;;;;;38.47;21.50;;;;;;;-5.12;100.00;96954.91;5070677;28;20470;-72
2022/12/20 01:01:36;;;;;;;37.23;21.47;;;;;;;-4.97;100.00;96985.50;5071390;28;21019;-72
2022/12/20 01:04:03;;;;;;;31.40;21.37;;;;;;;-5.03;100.00;96973.47;5069639;28;20963;-73
2022/12/20 01:06:30;;;;;;;29.73;20.13;;;;;;;-4.86;100.00;96995.13;5070578;28;20937;-73
2022/12/20 01:08:57;;;;;;;28.13;19.90;;;;;;;-4.91;100.00;96980.31;5070744;28;20462;-72
2022/12/20 01:11:27;;;;;;;30.83;20.80;;;;;;;-4.84;100.00;96991.34;5070680;28;20535;-71
2022/12/20 01:13:56;;;;;;;31.80;22.23;;;;;;;-4.82;100.00;96968.72;5072472;28;20490;-72
2022/12/20 01:16:29;;;;;;;28.93;19.60;;;;;;;-4.89;100.00;96952.53;5070677;28;20957;-72
2022/12/20 01:19:00;;;;;;;29.13;20.60;;;;;;;-4.83;100.00;96951.66;5054115;28;20436;-72
2022/12/20 01:21:28;;;;;;;26.70;18.90;;;;;;;-4.52;100.00;96991.25;5070290;28;20448;-73
2022/12/20 01:23:56;;;;;;;27.27;18.10;;;;;;;-4.28;100.00;97012.84;5070196;28;20440;-71
2022/12/20 01:26:25;;;;;;;27.77;18.83;;;;;;;-4.33;100.00;96994.63;5069989;28;20472;-71
2022/12/20 01:28:55;;;;;;;29.80;18.70;;;;;;;-4.21;100.00;97010.97;5071206;28;20439;-71
2022/12/20 01:31:23;;;;;;;28.30;19.93;;;;;;;-4.33;100.00;96997.22;5052803;28;20551;-71
2022/12/20 01:33:51;;;;;;;30.67;20.10;;;;;;;-4.49;100.00;96983.09;5053039;28;20456;-71
2022/12/20 01:36:24;;;;;;;30.17;20.80;;;;;;;-4.48;100.00;96975.13;5071182;28;20428;-70
2022/12/20 01:38:58;;;;;;;30.70;20.83;;;;;;;-4.44;100.00;96985.03;5071444;28;20431;-70
2022/12/20 01:41:26;;;;;;;28.43;19.10;;;;;;;-4.39;100.00;96977.44;5053227;28;20437;-70
2022/12/20 01:44:06;;;;;;;31.47;21.43;;;;;;;-4.36;100.00;96964.09;5057471;28;20445;-71
2022/12/20 01:46:35;;;;;;;27.60;19.93;;;;;;;-4.35;100.00;96955.34;5049694;28;20546;-71
2022/12/20 01:49:13;;;;;;;30.97;20.70;;;;;;;-4.46;100.00;96931.84;5063291;28;20432;-70
2022/12/20 01:51:43;;;;;;;27.63;19.83;;;;;;;-4.26;100.00;96954.84;5054665;28;20436;-70
2022/12/20 01:54:17;;;;;;;36.10;20.80;;;;;;;-4.44;100.00;96898.09;5071012;28;20546;-70
2022/12/20 01:56:49;;;;;;;32.43;21.00;;;;;;;-4.15;100.00;96943.00;5079147;28;20533;-71
2022/12/20 01:59:17;;;;;;;27.80;19.10;;;;;;;-4.16;100.00;96944.78;5069492;28;21047;-71
2022/12/20 02:01:43;;;;;;;25.87;17.30;;;;;;;-4.26;100.00;96923.88;5069906;28;20447;-71
2022/12/20 02:04:11;;;;;;;30.90;18.67;;;;;;;-4.33;100.00;96906.91;5045245;28;20488;-71
2022/12/20 02:06:37;;;;;;;31.43;19.10;;;;;;;-4.30;100.00;96899.50;5069373;28;20956;-72
2022/12/20 02:09:07;;;;;;;32.33;18.40;;;;;;;-3.93;100.00;96913.13;5069515;28;20445;-71
2022/12/20 02:12:11;;;;;;;28.80;18.03;;;;;;;-3.77;100.00;96929.78;5069391;28;20427;-71
2022/12/20 02:15:05;;;;;;;30.07;18.53;;;;;;;-3.80;100.00;96926.88;5069184;28;20884;-70
2022/12/20 02:18:06;;;;;;;30.80;18.80;;;;;;;-3.90;100.00;96927.38;5070670;28;20454;-70
2022/12/20 02:20:45;;;;;;;27.97;17.87;;;;;;;-3.95;100.00;96919.53;5069287;28;20487;-70
2022/12/20 02:23:49;;;;;;;29.80;19.33;;;;;;;-3.90;100.00;96904.16;5069063;28;21048;-70
2022/12/20 02:26:31;;;;;;;28.77;18.27;;;;;;;-3.85;100.00;96893.19;5069158;28;20486;-71
2022/12/20 02:29:16;;;;;;;28.43;18.93;;;;;;;-3.88;100.00;96908.06;5069235;28;20428;-71
2022/12/20 02:31:51;;;;;;;32.93;20.57;;;;;;;-4.09;100.00;96871.66;5069048;28;20432;-71
2022/12/20 02:34:23;;;;;;;38.23;22.20;;;;;;;-3.83;100.00;96916.97;5069116;28;20455;-72
2022/12/20 02:36:51;;;;;;;31.33;19.73;;;;;;;-3.81;100.00;96920.13;5069045;28;20465;-71
2022/12/20 02:39:18;;;;;;;29.80;19.30;;;;;;;-3.92;100.00;96937.16;5070525;28;20424;-71
2022/12/20 02:42:10;;;;;;;36.03;19.77;;;;;;;-3.99;100.00;96942.41;5068920;28;20436;-71
2022/12/20 02:47:38;;;;;;;27.17;17.87;;;;;;;-4.12;100.00;96918.56;5073294;28;20440;-71
2022/12/20 02:50:07;;;;;;;26.70;19.13;;;;;;;-4.26;100.00;96897.28;5086660;28;20436;-71
2022/12/20 02:52:35;;;;;;;30.60;17.63;;;;;;;-4.34;100.00;96877.72;5072789;28;20551;-71
2022/12/20 02:55:03;;;;;;;29.37;20.70;;;;;;;-4.34;100.00;96871.78;5058132;28;20932;-72
2022/12/20 02:57:32;;;;;;;29.90;19.67;;;;;;;-4.20;100.00;96904.16;5062967;28;20526;-72
2022/12/20 03:00:07;;;;;;;34.23;19.67;;;;;;;-4.26;100.00;96889.53;5072746;28;20428;-72
2022/12/20 03:05:24;;;;;;;35.37;22.87;;;;;;;-4.24;100.00;96892.69;5072695;28;20432;-72
2022/12/20 03:07:52;;;;;;;29.27;18.60;;;;;;;-4.22;100.00;96890.69;5072511;28;20459;-73
2022/12/20 03:10:23;;;;;;;32.57;19.00;;;;;;;-4.36;100.00;96864.25;5072655;28;20436;-72
2022/12/20 03:12:49;;;;;;;33.67;19.90;;;;;;;-4.18;100.00;96874.53;5055859;28;21080;-72
2022/12/20 03:15:17;;;;;;;31.03;19.07;;;;;;;-4.23;100.00;96863.28;5072369;28;20474;-72
2022/12/20 03:17:45;;;;;;;27.50;19.80;;;;;;;-4.25;100.00;96865.31;5072297;28;20892;-72
2022/12/20 03:20:12;;;;;;;32.77;22.07;;;;;;;-4.42;100.00;96821.25;5072386;28;20447;-72
2022/12/20 03:22:39;;;;;;;29.00;20.60;;;;;;;-4.36;100.00;96835.06;5055391;28;20467;-72
2022/12/20 03:25:06;;;;;;;33.80;19.37;;;;;;;-4.18;100.00;96855.66;5072240;28;20421;-72
2022/12/20 03:27:34;;;;;;;34.30;21.80;;;;;;;-4.24;100.00;96828.16;5059292;28;20440;-72
2022/12/20 03:30:03;;;;;;;29.13;20.90;;;;;;;-4.05;100.00;96823.72;5055810;28;20455;-72
2022/12/20 03:32:32;;;;;;;28.30;19.53;;;;;;;-3.94;100.00;96835.88;5072101;28;20459;-72
2022/12/20 03:34:59;;;;;;;33.67;21.10;;;;;;;-4.36;100.00;96779.09;5071984;28;20461;-72
2022/12/20 03:37:32;;;;;;;30.23;20.30;;;;;;;-3.82;100.00;96852.19;5072070;28;20436;-72
2022/12/20 03:40:02;;;;;;;33.13;20.87;;;;;;;-3.83;100.00;96860.16;5072006;28;20448;-72
2022/12/20 03:42:29;;;;;;;29.03;18.47;;;;;;;-3.93;100.00;96834.88;5055562;28;20464;-72
2022/12/20 03:44:55;;;;;;;28.27;19.07;;;;;;;-4.00;100.00;96831.63;5055405;28;21033;-72
2022/12/20 03:47:25;;;;;;;32.03;20.10;;;;;;;-3.75;100.00;96870.94;5073152;28;20434;-72
2022/12/20 03:49:52;;;;;;;33.30;21.90;;;;;;;-3.66;100.00;96856.72;5068888;28;20432;-72
2022/12/20 03:52:18;;;;;;;32.33;20.00;;;;;;;-3.61;100.00;96866.38;5071761;28;20464;-72
2022/12/20 03:54:48;;;;;;;29.40;19.50;;;;;;;-3.67;100.00;96864.69;5071164;28;20517;-72
2022/12/20 03:57:19;;;;;;;33.00;20.87;;;;;;;-3.65;100.00;96865.25;5063409;28;20432;-72
2022/12/20 03:59:49;;;;;;;26.33;23.47;;;;;;;-3.84;100.00;96845.69;5071662;28;20986;-72
2022/12/20 04:02:17;;;;;;;32.20;20.67;;;;;;;-3.66;100.00;96872.22;5071693;28;20464;-72
2022/12/20 04:04:44;;;;;;;35.10;20.00;;;;;;;-3.84;100.00;96840.50;5071580;28;20539;-72
2022/12/20 04:07:12;;;;;;;31.20;21.70;;;;;;;-3.75;100.00;96850.28;5071668;28;20424;-72
2022/12/20 04:09:43;;;;;;;31.37;19.17;;;;;;;-3.87;100.00;96827.03;5055544;28;21019;-72
2022/12/20 04:12:12;;;;;;;34.97;20.63;;;;;;;-3.81;100.00;96848.59;5054988;28;20460;-72
2022/12/20 04:14:39;;;;;;;29.40;18.30;;;;;;;-3.81;100.00;96848.59;5054707;28;20991;-72
2022/12/20 04:17:05;;;;;;;34.73;22.00;;;;;;;-3.60;100.00;96867.97;5054621;28;20455;-72
2022/12/20 04:19:33;;;;;;;36.90;19.77;;;;;;;-3.80;100.00;96857.91;5071195;28;20786;-72
2022/12/20 04:22:01;;;;;;;22.87;17.97;;;;;;;-3.81;100.00;96853.75;5071130;28;20479;-72
2022/12/20 04:24:44;;;;;;;33.40;20.53;;;;;;;-3.81;100.00;96856.34;5071279;28;20451;-72
2022/12/20 04:27:19;;;;;;;32.97;19.30;;;;;;;-3.88;100.00;96846.09;5055602;28;20463;-72
2022/12/20 04:29:45;;;;;;;28.77;18.80;;;;;;;-3.65;100.00;96867.81;5071030;28;20429;-72
2022/12/20 04:32:15;;;;;;;26.67;18.87;;;;;;;-3.53;100.00;96873.00;5070814;28;20550;-72
2022/12/20 04:34:42;;;;;;;26.80;19.53;;;;;;;-3.54;100.00;96872.22;5070762;28;20472;-72
2022/12/20 04:37:09;;;;;;;33.27;20.03;;;;;;;-3.60;100.00;96875.72;5070782;28;20439;-72
2022/12/20 04:39:43;;;;;;;29.50;18.83;;;;;;;-3.77;100.00;96849.72;5070921;28;20436;-72
2022/12/20 04:42:22;;;;;;;26.67;19.53;;;;;;;-3.93;100.00;96827.91;5070793;28;20478;-73
2022/12/20 04:44:50;;;;;;;27.17;18.87;;;;;;;-3.47;100.00;96862.59;5054384;28;20876;-72
2022/12/20 04:47:22;;;;;;;35.93;21.07;;;;;;;-3.61;100.00;96819.84;5070653;28;20440;-72
2022/12/20 04:49:49;;;;;;;30.27;20.40;;;;;;;-3.59;100.00;96830.78;5067339;28;20436;-72
2022/12/20 04:55:01;;;;;;;35.70;21.80;;;;;;;-3.25;100.00;96842.13;5072130;28;20513;-73
2022/12/20 04:57:31;;;;;;;40.00;25.03;;;;;;;-3.26;100.00;96822.47;5061480;28;20956;-73
2022/12/20 04:59:58;;;;;;;49.80;24.27;;;;;;;-3.35;100.00;96827.16;5070419;28;20967;-73
2022/12/20 05:02:25;;;;;;;42.43;27.33;;;;;;;-3.20;100.00;96864.75;5070352;28;20569;-73
2022/12/20 05:04:58;;;;;;;39.23;23.00;;;;;;;-3.34;100.00;96848.63;5057774;28;20497;-73
2022/12/20 05:07:25;;;;;;;35.87;21.50;;;;;;;-3.36;100.00;96829.97;5052818;28;20436;-72
2022/12/20 05:09:54;;;;;;;32.60;21.70;;;;;;;-3.50;100.00;96797.63;5070097;28;20443;-72
2022/12/20 05:12:20;;;;;;;33.07;20.87;;;;;;;-3.35;100.00;96792.78;5069888;28;20456;-72
2022/12/20 05:14:47;;;;;;;31.53;22.07;;;;;;;-3.12;100.00;96804.91;5070159;28;20455;-73
2022/12/20 05:17:17;;;;;;;33.43;19.17;;;;;;;-3.15;100.00;96816.50;5054016;28;20485;-73
2022/12/20 05:19:44;;;;;;;26.20;17.70;;;;;;;-3.07;100.00;96815.34;5070275;28;20519;-73
2022/12/20 05:27:51;;;;;;;36.40;21.43;;;;;;;-2.93;100.00;96813.31;5058182;28;20440;-72
2022/12/20 05:30:20;;;;;;;43.43;22.37;;;;;;;-3.01;100.00;96810.06;5069798;28;20537;-72
2022/12/20 05:32:47;;;;;;;34.87;20.60;;;;;;;-2.95;100.00;96810.94;5069688;28;20495;-72
2022/12/20 05:35:14;;;;;;;36.70;21.47;;;;;;;-3.03;100.00;96800.97;5052992;28;20918;-72
2022/12/20 05:37:41;;;;;;;31.87;18.60;;;;;;;-2.85;100.00;96829.25;5069605;28;20467;-72
2022/12/20 05:40:15;;;;;;;30.37;18.67;;;;;;;-3.12;100.00;96802.31;5069453;28;20455;-72
2022/12/20 05:42:42;;;;;;;34.77;19.50;;;;;;;-2.96;100.00;96835.25;5053147;28;20559;-72
2022/12/20 05:45:10;;;;;;;40.33;20.30;;;;;;;-3.10;100.00;96819.19;5069441;28;20493;-72
2022/12/20 05:47:45;;;;;;;38.83;23.07;;;;;;;-2.95;100.00;96823.09;5069501;28;20442;-72
2022/12/20 05:50:12;;;;;;;35.57;23.37;;;;;;;-3.16;100.00;96786.50;5083053;28;20460;-72
2022/12/20 05:53:04;;;;;;;35.97;25.60;;;;;;;-3.00;100.00;96811.63;5070564;28;20468;-72
2022/12/20 05:55:46;;;;;;;31.60;20.60;;;;;;;-2.98;100.00;96806.22;5076508;28;21009;-72
2022/12/20 05:58:13;;;;;;;29.83;18.77;;;;;;;-3.10;100.00;96785.56;5054011;28;20436;-72
2022/12/20 06:00:49;;;;;;;35.60;19.93;;;;;;;-2.93;100.00;96802.97;5069338;28;20435;-73
2022/12/20 06:03:16;;;;;;;32.43;19.03;;;;;;;-3.15;100.00;96766.59;5053414;28;20895;-73
2022/12/20 06:05:44;;;;;;;29.10;20.10;;;;;;;-2.97;100.00;96792.28;5052838;28;20551;-70
2022/12/20 06:08:15;;;;;;;35.00;19.50;;;;;;;-3.20;100.00;96758.75;5069231;28;20531;-71
2022/12/20 06:10:42;;;;;;;26.40;19.57;;;;;;;-2.90;100.00;96807.69;5069113;28;20447;-71
2022/12/20 06:13:09;;;;;;;30.40;20.30;;;;;;;-2.84;100.00;96815.31;5068969;28;20472;-71
2022/12/20 06:15:37;;;;;;;33.63;19.80;;;;;;;-2.98;100.00;96804.44;5068924;28;20571;-71
2022/12/20 06:18:05;;;;;;;31.10;19.93;;;;;;;-2.72;100.00;96834.19;5068751;28;20901;-71
2022/12/20 06:20:33;;;;;;;27.20;17.97;;;;;;;-2.76;100.00;96814.19;5068834;28;20451;-71
2022/12/20 06:23:02;;;;;;;29.83;18.70;;;;;;;-2.91;100.00;96804.31;5068777;28;20512;-72
2022/12/20 06:25:34;;;;;;;40.47;24.00;;;;;;;-3.28;100.00;96739.19;5069100;28;20448;-72
2022/12/20 06:28:02;;;;;;;43.70;27.47;;;;;;;-2.90;100.00;96799.94;5070777;28;20808;-72
2022/12/20 06:30:29;;;;;;;37.17;21.80;;;;;;;-2.91;100.00;96800.94;5069021;28;20436;-71
2022/12/20 06:33:05;;;;;;;35.23;21.80;;;;;;;-3.07;100.00;96786.91;5069022;28;20493;-71
2022/12/20 06:35:32;;;;;;;30.50;21.50;;;;;;;-2.93;100.00;96808.94;5052329;28;20460;-71
2022/12/20 06:38:01;;;;;;;33.90;20.67;;;;;;;-2.78;100.00;96819.59;5068972;28;20428;-71
2022/12/20 06:40:31;;;;;;;27.67;19.63;;;;;;;-2.95;100.00;96807.56;5069042;28;20501;-71
2022/12/20 06:42:59;;;;;;;25.03;19.87;;;;;;;-2.88;100.00;96819.38;5052586;28;20499;-71
2022/12/20 06:45:26;;;;;;;33.57;21.43;;;;;;;-2.90;100.00;96818.81;5068754;28;20443;-71
2022/12/20 06:47:53;;;;;;;29.10;21.00;;;;;;;-3.01;100.00;96830.75;5052996;28;20552;-71
2022/12/20 06:50:21;;;;;;;30.00;19.33;;;;;;;-3.01;100.00;96838.50;5081382;28;20584;-72
2022/12/20 06:52:48;;;;;;;30.27;18.80;;;;;;;-2.98;100.00;96834.69;5068676;28;20514;-72
2022/12/20 06:55:15;;;;;;;32.17;21.23;;;;;;;-3.04;100.00;96830.44;5055935;28;20550;-71
2022/12/20 06:57:43;;;;;;;38.30;21.20;;;;;;;-3.32;100.00;96792.34;5057429;28;20475;-72
2022/12/20 07:00:15;;;;;;;31.93;21.57;;;;;;;-3.12;100.00;96820.44;5068792;28;20440;-72
2022/12/20 07:02:42;;;;;;;29.60;22.07;;;;;;;-3.28;100.00;96796.06;5069987;28;20444;-72
2022/12/20 07:05:08;;;;;;;29.77;20.57;;;;;;;-3.22;100.00;96802.88;5068995;28;20448;-72
2022/12/20 07:07:36;;;;;;;30.97;21.03;;;;;;;-3.19;100.00;96814.59;5068763;28;20424;-71
2022/12/20 07:10:10;;;;;;;39.70;24.33;;;;;;;-3.59;100.00;96751.47;5068662;28;20439;-72
2022/12/20 07:12:37;;;;;;;36.70;23.57;;;;;;;-3.20;100.00;96815.63;5068740;28;20772;-71
2022/12/20 07:15:12;;;;;;;33.20;21.70;;;;;;;-3.19;100.00;96812.00;5070042;28;20538;-71
2022/12/20 07:17:39;;;;;;;35.07;23.50;;;;;;;-3.39;100.00;96781.34;5068561;28;20955;-71
2022/12/20 07:20:06;;;;;;;33.07;24.90;;;;;;;-3.19;100.00;96804.25;5069985;28;20968;-71
2022/12/20 07:22:39;;;;;;;37.03;25.53;;;;;;;-3.15;100.00;96807.97;5070961;28;21062;-71
2022/12/20 07:25:06;;;;;;;41.40;26.13;;;;;;;-3.09;100.00;96807.81;5068470;28;20456;-71
2022/12/20 07:27:33;;;;;;;30.37;22.50;;;;;;;-3.08;100.00;96785.34;5069832;28;20424;-71
2022/12/20 07:29:59;;;;;;;37.60;24.33;;;;;;;-2.92;100.00;96818.28;5070251;28;20452;-71
2022/12/20 07:32:26;;;;;;;38.10;23.30;;;;;;;-3.07;100.00;96792.88;5071891;28;20464;-71
2022/12/20 07:34:53;;;;;;;32.93;21.67;;;;;;;-2.89;100.00;96814.44;5073370;28;20460;-71
2022/12/20 07:37:19;;;;;;;30.70;23.93;;;;;;;-3.01;100.00;96798.94;5059969;28;20431;-71
2022/12/20 07:39:46;;;;;;;41.63;26.50;;;;;;;-3.10;100.00;96795.13;5072253;28;20427;-71
2022/12/20 07:42:13;;;;;;;39.63;26.10;;;;;;;-3.00;100.00;96808.25;5071916;28;20448;-71
2022/12/20 07:44:41;;;;;;;33.70;23.67;;;;;;;-2.95;100.00;96812.75;5071914;28;20920;-71
2022/12/20 07:47:09;;;;;;;34.50;23.73;;;;;;;-2.91;100.00;96793.19;5071715;28;20436;-71
2022/12/20 07:49:36;;;;;;;33.07;22.70;;;;;;;-2.80;100.00;96803.50;5086463;28;20470;-71
2022/12/20 07:52:04;;;;;;;40.10;25.00;;;;;;;-2.84;100.00;96783.47;5071758;28;20444;-71
2022/12/20 07:54:35;;;;;;;38.77;25.33;;;;;;;-2.89;100.00;96773.84;5071569;28;20818;-71
2022/12/20 07:57:09;;;;;;;31.63;23.90;;;;;;;-2.66;100.00;96801.44;5082210;28;20428;-71
2022/12/20 07:59:40;;;;;;;37.77;24.80;;;;;;;-2.59;100.00;96794.31;5071574;28;20416;-71
2022/12/20 08:02:12;;;;;;;31.57;22.90;;;;;;;-2.50;100.00;96786.97;5071518;28;20534;-71
2022/12/20 08:04:40;;;;;;;32.43;23.80;;;;;;;-2.38;100.00;96778.16;5071650;28;20440;-71
2022/12/20 08:07:08;;;;;;;29.67;20.33;;;;;;;-2.46;100.00;96759.63;5071371;28;21020;-71
2022/12/20 08:09:39;;;;;;;31.53;22.80;;;;;;;-2.30;100.00;96784.75;5071203;28;20475;-71
2022/12/20 08:12:08;;;;;;;36.70;24.97;;;;;;;-2.24;100.00;96791.59;5072668;28;20452;-71
2022/12/20 08:14:36;;;;;;;31.73;23.37;;;;;;;-2.19;100.00;96789.06;5054477;28;20440;-71
2022/12/20 08:17:03;;;;;;;42.67;26.00;;;;;;;-2.18;100.00;96784.69;5071152;28;20519;-71
2022/12/20 08:19:30;;;;;;;36.97;24.50;;;;;;;-2.29;100.00;96772.56;5071103;28;20416;-71
2022/12/20 08:21:58;;;;;;;29.97;21.20;;;;;;;-2.23;100.00;96798.34;5073028;28;20464;-71
2022/12/20 08:24:25;;;;;;;38.97;22.50;;;;;;;-2.35;100.00;96770.94;5071477;28;20432;-71
2022/12/20 08:26:52;;;;;;;29.10;20.57;;;;;;;-2.35;100.00;96761.38;5055213;28;20893;-72
2022/12/20 08:29:18;;;;;;;34.20;22.13;;;;;;;-2.17;100.00;96789.63;5072661;28;20442;-72
2022/12/20 08:31:45;;;;;;;29.43;20.37;;;;;;;-2.11;100.00;96788.72;5054722;28;20885;-72
2022/12/20 08:34:16;;;;;;;34.80;20.67;;;;;;;-2.16;100.00;96785.22;5071158;28;20954;-72
2022/12/20 08:36:43;;;;;;;35.87;19.33;;;;;;;-2.27;100.00;96768.75;5070989;28;20548;-72
2022/12/20 08:39:10;;;;;;;48.30;26.50;;;;;;;-2.03;100.00;96794.50;5072345;28;20435;-72
2022/12/20 08:41:37;;;;;;;70.77;31.93;;;;;;;-2.15;100.00;96760.91;5070690;28;20456;-72
2022/12/20 08:44:05;;;;;;;39.50;23.73;;;;;;;-1.88;100.00;96795.53;5072485;28;20432;-73
2022/12/20 08:46:32;;;;;;;39.20;21.17;;;;;;;-1.87;100.00;96807.50;5070982;28;20440;-72
2022/12/20 08:48:58;;;;;;;32.67;21.33;;;;;;;-1.90;100.00;96786.44;5086724;28;20788;-72
2022/12/20 08:51:25;;;;;;;34.60;20.53;;;;;;;-2.03;100.00;96773.78;5075962;28;20456;-72
2022/12/20 08:53:52;;;;;;;27.10;18.70;;;;;;;-1.88;100.00;96772.22;5071159;28;20814;-72
2022/12/20 08:56:19;;;;;;;36.97;21.60;;;;;;;-1.84;100.00;96765.56;5080592;28;20495;-72
2022/12/20 08:58:46;;;;;;;52.67;30.50;;;;;;;-1.75;100.00;96767.75;5072359;28;20430;-72
2022/12/20 09:01:15;;;;;;;58.40;35.37;;;;;;;-1.74;100.00;96754.56;5071655;28;20885;-73
2022/12/20 09:03:43;;;;;;;43.50;26.60;;;;;;;-1.63;100.00;96768.44;5070941;28;20456;-72
2022/12/20 09:06:17;;;;;;;34.97;20.00;;;;;;;-1.87;100.00;96726.38;5057201;28;20436;-72
2022/12/20 09:08:43;;;;;;;30.63;19.40;;;;;;;-1.76;100.00;96746.22;5074477;28;20420;-72
2022/12/20 09:11:14;;;;;;;30.77;20.77;;;;;;;-1.61;100.00;96751.63;5072741;28;20527;-72
2022/12/20 09:13:43;;;;;;;32.30;22.27;;;;;;;-1.52;100.00;96762.38;5070668;28;20459;-72
2022/12/20 09:16:12;;;;;;;31.00;20.50;;;;;;;-1.41;100.00;96773.69;5057862;28;20455;-72
2022/12/20 09:18:42;;;;;;;39.97;24.07;;;;;;;-1.20;100.00;96791.13;5071790;28;20470;-72
2022/12/20 09:21:10;;;;;;;40.30;23.97;;;;;;;-0.98;100.00;96807.47;5072518;28;20454;-73
2022/12/20 09:23:37;;;;;;;34.80;22.10;;;;;;;-0.90;100.00;96791.50;5054405;28;20463;-72
2022/12/20 09:26:06;;;;;;;31.40;21.37;;;;;;;-0.73;100.00;96801.81;5071536;28;21074;-72
2022/12/20 09:28:33;;;;;;;31.47;21.07;;;;;;;-0.87;100.00;96789.44;5069847;28;20436;-72
2022/12/20 09:31:02;;;;;;;34.37;21.83;;;;;;;-0.80;100.00;96795.22;5069964;28;20426;-72
2022/12/20 09:33:30;;;;;;;35.13;21.63;;;;;;;-0.84;100.00;96787.13;5070316;28;20452;-72
2022/12/20 09:35:58;;;;;;;34.57;23.20;;;;;;;-0.64;100.00;96810.75;5053723;28;20876;-72
2022/12/20 09:38:26;;;;;;;25.50;19.77;;;;;;;-0.64;100.00;96818.53;5070862;28;20898;-73
2022/12/20 09:40:57;;;;;;;32.43;22.73;;;;;;;-0.77;100.00;96797.34;5071866;28;20524;-72
2022/12/20 09:43:24;;;;;;;34.60;22.70;;;;;;;-0.83;100.00;96795.69;5070749;28;21000;-72
2022/12/20 09:45:54;;;;;;;34.37;21.73;;;;;;;-0.93;100.00;96765.25;5070530;28;20803;-73
2022/12/20 09:48:30;;;;;;;30.20;22.73;;;;;;;-0.76;100.00;96778.94;5076481;28;20502;-73
2022/12/20 09:51:09;;;;;;;31.50;21.63;;;;;;;-0.70;100.00;96785.75;5077830;28;20935;-73
2022/12/20 09:53:54;;;;;;;29.53;20.13;;;;;;;-0.70;100.00;96780.53;5070221;28;20542;-73
2022/12/20 09:56:43;;;;;;;29.93;21.90;;;;;;;-1.05;100.00;96726.44;5079986;28;20464;-73
2022/12/20 09:59:13;;;;;;;35.20;21.20;;;;;;;-1.04;100.00;96729.81;5053961;28;20873;-72
2022/12/20 10:01:45;;;;;;;26.90;19.00;;;;;;;-0.80;100.00;96754.50;5071173;28;20420;-72
2022/12/20 10:04:27;;;;;;;33.03;19.90;;;;;;;-0.73;100.00;96754.28;5071156;28;20447;-71
2022/12/20 10:07:16;;;;;;;31.23;21.37;;;;;;;-0.76;100.00;96747.78;5054799;28;20450;-70
2022/12/20 10:10:13;;;;;;;30.77;20.27;;;;;;;-0.80;100.00;96756.28;5058328;28;20970;-71
2022/12/20 10:13:22;;;;;;;30.90;20.03;;;;;;;-0.79;100.00;96763.06;5070737;28;20444;-71
2022/12/20 10:15:57;;;;;;;30.03;19.73;;;;;;;-0.94;100.00;96755.88;5039302;28;20510;-71
2022/12/20 10:18:57;;;;;;;32.57;19.77;;;;;;;-0.84;100.00;96757.78;5069099;28;20893;-71
2022/12/20 10:21:45;;;;;;;29.47;19.70;;;;;;;-0.87;100.00;96742.72;5068948;28;20807;-71
2022/12/20 10:24:29;;;;;;;38.27;22.10;;;;;;;-0.94;100.00;96722.13;5068984;28;20443;-71
2022/12/20 10:27:01;;;;;;;33.03;20.30;;;;;;;-0.84;100.00;96743.00;5052429;28;20416;-71
2022/12/20 10:29:28;;;;;;;29.67;19.20;;;;;;;-1.07;100.00;96714.72;5069058;28;20468;-71
2022/12/20 10:31:59;;;;;;;29.70;20.60;;;;;;;-1.04;100.00;96702.06;5052325;28;20456;-71
2022/12/20 10:34:26;;;;;;;33.20;20.40;;;;;;;-0.72;100.00;96733.28;5068965;28;20446;-72
2022/12/20 10:37:14;;;;;;;31.10;19.10;;;;;;;-0.73;100.00;96723.94;5069001;28;20459;-72
2022/12/20 10:39:45;;;;;;;25.23;18.53;;;;;;;-0.70;100.00;96726.03;5069002;28;20518;-71
2022/12/20 10:42:37;;;;;;;26.20;18.60;;;;;;;-0.54;100.00;96724.38;5068850;28;20513;-71
2022/12/20 10:45:22;;;;;;;35.43;19.37;;;;;;;-0.44;100.00;96718.50;5068861;28;20480;-71
2022/12/20 10:47:50;;;;;;;28.93;19.40;;;;;;;-0.31;100.00;96718.88;5070168;28;20493;-71
2022/12/20 10:50:21;;;;;;;27.77;19.03;;;;;;;-0.39;100.00;96701.16;5081970;28;20425;-71
2022/12/20 10:53:09;;;;;;;25.37;17.10;;;;;;;-0.35;100.00;96696.25;5068584;28;20456;-71
2022/12/20 10:55:41;;;;;;;24.83;16.80;;;;;;;-0.49;100.00;96659.50;5075294;28;20548;-71
2022/12/20 10:58:26;;;;;;;32.57;19.07;;;;;;;-0.26;100.00;96684.38;5070561;28;20430;-71
2022/12/20 11:01:17;;;;;;;23.90;17.20;;;;;;;-0.36;100.00;96666.88;5068658;28;20490;-71
2022/12/20 11:04:05;;;;;;;26.60;18.40;;;;;;;-0.39;100.00;96669.22;5069234;28;20954;-71
2022/12/20 11:06:42;;;;;;;31.50;19.53;;;;;;;-0.27;100.00;96672.41;5072631;28;20436;-71
2022/12/20 11:09:30;;;;;;;31.60;19.97;;;;;;;-0.20;100.00;96661.81;5072573;28;20935;-72
2022/12/20 11:12:07;;;;;;;31.30;20.23;;;;;;;-0.18;100.00;96654.53;5055757;28;20499;-72
2022/12/20 11:14:35;;;;;;;35.13;18.63;;;;;;;-0.06;100.00;96663.72;5055971;28;20811;-71
2022/12/20 11:17:11;;;;;;;23.30;18.10;;;;;;;0.16;100.00;96673.25;5072919;28;20555;-72
2022/12/20 11:19:53;;;;;;;27.80;19.50;;;;;;;0.08;100.00;96664.06;5072967;28;20478;-72
2022/12/20 11:22:33;;;;;;;29.40;20.40;;;;;;;0.22;100.00;96659.22;5074103;28;20520;-71
2022/12/20 11:25:28;;;;;;;32.37;21.80;;;;;;;0.35;100.00;96652.78;5073236;28;20939;-72
2022/12/20 11:27:55;;;;;;;28.00;18.90;;;;;;;0.36;100.00;96657.72;5062220;28;20447;-72
2022/12/20 11:30:39;;;;;;;23.80;17.37;;;;;;;0.48;100.00;96667.94;5072364;28;20432;-72
2022/12/20 11:33:26;;;;;;;27.57;18.90;;;;;;;0.33;100.00;96655.66;5056163;28;20975;-71
2022/12/20 11:36:13;;;;;;;27.40;20.20;;;;;;;0.36;100.00;96657.72;5072477;28;20460;-72
2022/12/20 11:38:49;;;;;;;25.90;18.13;;;;;;;0.18;100.00;96658.16;5072378;28;20425;-72
2022/12/20 11:41:47;;;;;;;29.53;19.13;;;;;;;0.10;100.00;96635.22;5074451;28;20430;-72
2022/12/20 11:44:35;;;;;;;27.50;18.37;;;;;;;0.07;100.00;96625.34;5073735;28;20424;-71